Time;durP1;ratioP1;P1;durP2;ratioP2;P2;SDS_P1;SDS_P2;PMS_P1;PMS_P2;Temp;Humidity;BMP_temperature;BMP_pressure;BME280_temperature;BME280_humidity;BME280_pressure;Samples;Min_cycle;Max_cycle;Signal;HPM_P1;HPM_P2
2023/02/06 00:19:55;;;;;;;;;;;;;;;;;;6285034;22;19903;-85
2023/02/06 00:22:28;;;;;;;;;;;;;;;;;;6252805;22;19903;-81
2023/02/06 00:25:04;;;;;;;;;;;;;;;;;;6277761;22;19963;-81
2023/02/06 00:27:34;;;;;;;;;;;;;;;;;;6280408;22;19898;-83
2023/02/06 00:30:03;;;;;;;;;;;;;;;;;;6333064;22;19915;-84
2023/02/06 00:32:29;;;;;;;;;;;;;;;;;;6281569;22;19897;-82
2023/02/06 00:34:55;;;;;;;;;;;;;;;;;;6281500;22;19891;-83
2023/02/06 01:20:48;;;;;;;;;;;;;;;;;;6298732;22;19903;-81
2023/02/06 01:23:18;;;;;;;;;;;;;;;;;;6345973;22;19894;-81
2023/02/06 01:25:52;;;;;;;;;;;;;;;;;;6302457;22;19957;-80
2023/02/06 01:31:12;;;;;;;;;;;;;;;;;;6289729;22;19903;-83
2023/02/06 01:55:35;;;;;;;;;;;;;;;;;;6296707;22;19899;-86
2023/02/06 02:11:58;;;;;;;;;;;;;;;;;;6294491;22;19903;-84
2023/02/06 03:25:24;;;;;;;;;;;;;;;;;;6297045;22;19910;-82
2023/02/06 03:30:33;;;;;;;;;;;;;;;;;;6302647;22;19903;-83
2023/02/06 03:38:53;;;;;;;;;;;;;;;;;;6304659;22;19903;-80
2023/02/06 03:46:38;;;;;;;;;;;;;;;;;;6296759;22;19919;-81
2023/02/06 03:51:53;;;;;;;;;;;;;;;;;;6285593;22;19912;-82
2023/02/06 03:59:50;;;;;;;;;;;;;;;;;;6303768;22;19904;-83
2023/02/06 04:25:01;;;;;;;;;;;;;;;;;;6303358;22;19955;-80
2023/02/06 04:33:40;;;;;;;;;;;;;;;;;;6310090;22;19923;-82
2023/02/06 04:36:06;;;;;;;;;;;;;;;;;;6281801;22;19899;-82
2023/02/06 04:52:11;;;;;;;;;;;;;;;;;;6303540;22;19918;-83
2023/02/06 04:55:29;;;;;;;;;;;;;;;;;;;;;
2023/02/06 05:09:15;;;;;;;;;;;;;;;;;;6310432;22;19903;-81
2023/02/06 05:34:04;;;;;;;;;;;;;;;;;;6304268;22;19919;-80
2023/02/06 05:36:30;;;;;;;;;;;;;;;;;;6311922;22;19931;-82
2023/02/06 05:38:56;;;;;;;;;;;;;;;;;;6299796;22;19910;-82
2023/02/06 05:41:21;;;;;;;;;;;;;;;;;;6324028;22;19907;-82
2023/02/06 05:43:47;;;;;;;;;;;;;;;;;;6303845;22;19930;-83
2023/02/06 05:46:13;;;;;;;;;;;;;;;;;;6304783;22;19907;-83
2023/02/06 05:48:39;;;;;;;;;;;;;;;;;;6303483;22;19907;-82
2023/02/06 05:51:04;;;;;;;;;;;;;;;;;;6302470;22;19938;-83
2023/02/06 05:53:30;;;;;;;;;;;;;;;;;;6301285;22;19907;-83
2023/02/06 05:55:55;;;;;;;;;;;;;;;;;;6328106;22;19910;-82
2023/02/06 05:58:21;;;;;;;;;;;;;;;;;;6296208;22;19954;-82
2023/02/06 06:00:46;;;;;;;;;;;;;;;;;;6319689;22;19906;-83
2023/02/06 06:03:12;;;;;;;;;;;;;;;;;;6295184;22;19914;-82
2023/02/06 06:05:37;;;;;;;;;;;;;;;;;;6319992;22;19933;-83
2023/02/06 06:08:03;;;;;;;;;;;;;;;;;;6321057;22;19951;-81
2023/02/06 06:10:28;;;;;;;;;;;;;;;;;;6297702;22;19937;-81
2023/02/06 06:12:54;;;;;;;;;;;;;;;;;;6321770;22;20244;-82
2023/02/06 06:15:19;;;;;;;;;;;;;;;;;;6269814;22;19914;-82
2023/02/06 06:17:44;;;;;;;;;;;;;;;;;;6295959;22;19907;-82
2023/02/06 06:20:10;;;;;;;;;;;;;;;;;;6298522;22;19907;-82
2023/02/06 06:22:35;;;;;;;;;;;;;;;;;;6323465;22;19911;-82
2023/02/06 06:25:01;;;;;;;;;;;;;;;;;;6300291;22;19918;-82
2023/02/06 06:27:26;;;;;;;;;;;;;;;;;;6300132;22;19981;-82
2023/02/06 06:29:51;;;;;;;;;;;;;;;;;;6324865;22;20256;-82
2023/02/06 06:32:17;;;;;;;;;;;;;;;;;;6324487;22;19907;-82
2023/02/06 06:34:42;;;;;;;;;;;;;;;;;;6324944;22;19910;-83
2023/02/06 06:37:08;;;;;;;;;;;;;;;;;;6325936;22;20391;-82
2023/02/06 06:39:33;;;;;;;;;;;;;;;;;;6326127;22;20318;-82
2023/02/06 06:41:58;;;;;;;;;;;;;;;;;;6327563;22;19907;-81
2023/02/06 06:44:24;;;;;;;;;;;;;;;;;;6328639;22;19914;-82
2023/02/06 06:46:53;;;;;;;;;;;;;;;;;;6329631;22;19907;-82
2023/02/06 06:49:18;;;;;;;;;;;;;;;;;;6327827;22;19907;-83
2023/02/06 06:51:44;;;;;;;;;;;;;;;;;;6326415;22;20363;-82
2023/02/06 06:54:09;;;;;;;;;;;;;;;;;;6326976;22;19914;-82
2023/02/06 06:56:35;;;;;;;;;;;;;;;;;;6275016;22;19907;-83
2023/02/06 06:59:00;;;;;;;;;;;;;;;;;;6275426;22;19907;-82
2023/02/06 07:01:26;;;;;;;;;;;;;;;;;;6322315;22;19910;-82
2023/02/06 07:03:51;;;;;;;;;;;;;;;;;;6266367;22;19907;-82
2023/02/06 07:06:17;;;;;;;;;;;;;;;;;;6293362;22;19923;-82
2023/02/06 07:08:42;;;;;;;;;;;;;;;;;;6294610;22;20320;-82
2023/02/06 07:11:08;;;;;;;;;;;;;;;;;;6291969;22;19912;-82
2023/02/06 07:13:33;;;;;;;;;;;;;;;;;;6294523;22;20352;-81
2023/02/06 07:15:59;;;;;;;;;;;;;;;;;;6323616;22;19907;-82
2023/02/06 07:18:24;;;;;;;;;;;;;;;;;;6327000;22;19989;-82
2023/02/06 07:20:50;;;;;;;;;;;;;;;;;;6330433;22;19907;-82
2023/02/06 07:23:15;;;;;;;;;;;;;;;;;;6278153;22;20353;-82
2023/02/06 07:25:41;;;;;;;;;;;;;;;;;;6302474;22;19903;-82
2023/02/06 07:28:09;;;;;;;;;;;;;;;;;;6331415;22;20296;-82
2023/02/06 07:30:34;;;;;;;;;;;;;;;;;;6329531;22;19911;-82
2023/02/06 07:33:00;;;;;;;;;;;;;;;;;;6325333;22;20225;-83
2023/02/06 07:35:25;;;;;;;;;;;;;;;;;;6322856;22;19914;-83
2023/02/06 07:37:50;;;;;;;;;;;;;;;;;;6330529;22;19907;-83
2023/02/06 07:40:16;;;;;;;;;;;;;;;;;;6303564;22;19937;-83
2023/02/06 07:42:44;;;;;;;;;;;;;;;;;;6304124;22;19950;-82
2023/02/06 07:45:18;;;;;;;;;;;;;;;;;;6305572;22;19935;-83
2023/02/06 07:47:44;;;;;;;;;;;;;;;;;;6307386;22;19953;-84
2023/02/06 07:50:09;;;;;;;;;;;;;;;;;;6308534;22;19907;-83
2023/02/06 07:52:35;;;;;;;;;;;;;;;;;;6335333;22;19914;-83
2023/02/06 07:55:00;;;;;;;;;;;;;;;;;;6332073;22;19910;-83
2023/02/06 07:57:28;;;;;;;;;;;;;;;;;;6328943;22;19915;-82
2023/02/06 07:59:54;;;;;;;;;;;;;;;;;;6303913;22;20343;-83
2023/02/06 08:02:19;;;;;;;;;;;;;;;;;;6303225;22;19914;-83
2023/02/06 08:04:44;;;;;;;;;;;;;;;;;;6303213;22;19907;-82
2023/02/06 08:07:13;;;;;;;;;;;;;;;;;;6333465;22;19911;-82
2023/02/06 08:09:39;;;;;;;;;;;;;;;;;;6331609;22;19907;-82
2023/02/06 08:12:04;;;;;;;;;;;;;;;;;;6302167;22;19922;-82
2023/02/06 08:14:30;;;;;;;;;;;;;;;;;;6324808;22;19914;-82
2023/02/06 08:16:55;;;;;;;;;;;;;;;;;;6320974;22;20417;-83
2023/02/06 08:19:21;;;;;;;;;;;;;;;;;;6268628;22;20328;-82
2023/02/06 08:21:46;;;;;;;;;;;;;;;;;;6323893;22;19907;-82
2023/02/06 08:24:12;;;;;;;;;;;;;;;;;;6323724;22;19907;-83
2023/02/06 08:26:37;;;;;;;;;;;;;;;;;;6324846;22;19907;-83
2023/02/06 08:29:03;;;;;;;;;;;;;;;;;;6295432;22;19914;-82
2023/02/06 08:34:10;;;;;;;;;;;;;;;;;;6300647;22;19919;-83
2023/02/06 08:36:38;;;;;;;;;;;;;;;;;;6296051;22;19907;-82
2023/02/06 08:39:04;;;;;;;;;;;;;;;;;;6271744;22;19915;-82
2023/02/06 08:41:30;;;;;;;;;;;;;;;;;;6270529;22;19907;-82
2023/02/06 08:43:55;;;;;;;;;;;;;;;;;;6298792;22;19908;-83
2023/02/06 08:46:21;;;;;;;;;;;;;;;;;;6301089;22;19918;-83
2023/02/06 08:48:47;;;;;;;;;;;;;;;;;;6303819;22;19911;-82
2023/02/06 08:51:12;;;;;;;;;;;;;;;;;;6303144;22;19923;-83
2023/02/06 08:53:38;;;;;;;;;;;;;;;;;;6301543;22;19929;-83
2023/02/06 08:56:03;;;;;;;;;;;;;;;;;;6275613;22;19915;-83
2023/02/06 08:58:31;;;;;;;;;;;;;;;;;;6274642;22;19914;-82
2023/02/06 09:00:58;;;;;;;;;;;;;;;;;;6299308;22;19907;-83
2023/02/06 09:03:25;;;;;;;;;;;;;;;;;;6267631;22;19964;-81
2023/02/06 09:05:51;;;;;;;;;;;;;;;;;;6291842;22;19911;-81
2023/02/06 09:08:16;;;;;;;;;;;;;;;;;;6290604;22;19916;-82
2023/02/06 09:10:42;;;;;;;;;;;;;;;;;;6292057;22;19934;-82
2023/02/06 09:13:08;;;;;;;;;;;;;;;;;;6287426;22;20256;-83
2023/02/06 09:15:33;;;;;;;;;;;;;;;;;;6289059;22;19908;-82
2023/02/06 09:17:59;;;;;;;;;;;;;;;;;;6293396;22;19908;-83
2023/02/06 09:20:25;;;;;;;;;;;;;;;;;;6292555;22;19907;-82
2023/02/06 09:22:51;;;;;;;;;;;;;;;;;;6291004;22;19908;-82
2023/02/06 09:25:16;;;;;;;;;;;;;;;;;;6262704;22;19931;-83
2023/02/06 09:27:45;;;;;;;;;;;;;;;;;;6267256;22;19976;-82
2023/02/06 09:30:11;;;;;;;;;;;;;;;;;;6271487;22;20276;-82
2023/02/06 09:32:38;;;;;;;;;;;;;;;;;;6301735;22;19918;-84
2023/02/06 09:35:07;;;;;;;;;;;;;;;;;;6237988;23;19947;-83
2023/02/06 09:37:32;;;;;;;;;;;;;;;;;;6216898;23;19935;-82
2023/02/06 09:39:58;;;;;;;;;;;;;;;;;;6244782;23;19914;-81
2023/02/06 09:42:25;;;;;;;;;;;;;;;;;;6243444;23;19923;-82
2023/02/06 09:44:52;;;;;;;;;;;;;;;;;;6244102;23;19934;-82
2023/02/06 09:47:25;;;;;;;;;;;;;;;;;;6248218;23;19891;-81
2023/02/06 09:50:28;;;;;;;;;;;;;;;;;;6276818;22;19911;-84
2023/02/06 09:52:55;;;;;;;;;;;;;;;;;;6306849;22;19952;-82
2023/02/06 09:58:03;;;;;;;;;;;;;;;;;;6301630;22;19919;-83
2023/02/06 10:00:37;;;;;;;;;;;;;;;;;;6281329;22;19918;-81
2023/02/06 10:03:02;;;;;;;;;;;;;;;;;;6306134;22;19911;-82
2023/02/06 10:05:31;;;;;;;;;;;;;;;;;;6301975;22;19895;-83
2023/02/06 10:07:57;;;;;;;;;;;;;;;;;;6294273;22;19918;-82
2023/02/06 10:10:24;;;;;;;;;;;;;;;;;;6281944;22;19898;-81
2023/02/06 10:12:50;;;;;;;;;;;;;;;;;;6280982;22;19986;-83
2023/02/06 10:15:19;;;;;;;;;;;;;;;;;;6261180;22;19918;-82
2023/02/06 10:23:05;;;;;;;;;;;;;;;;;;6265941;22;19927;-80
2023/02/06 10:36:18;;;;;;;;;;;;;;;;;;6276391;22;19904;-86
2023/02/06 10:38:45;;;;;;;;;;;;;;;;;;6245583;22;19903;-81
2023/02/06 10:41:11;;;;;;;;;;;;;;;;;;6314126;22;19910;-84
2023/02/06 10:43:39;;;;;;;;;;;;;;;;;;6281496;22;19926;-83
2023/02/06 10:51:47;;;;;;;;;;;;;;;;;;6323132;22;19919;-84
2023/02/06 10:54:13;;;;;;;;;;;;;;;;;;6284698;22;19895;-83
2023/02/06 10:56:43;;;;;;;;;;;;;;;;;;6335175;22;19910;-82
2023/02/06 11:28:54;;;;;;;;;;;;;;;;;;6278394;22;19907;-83
2023/02/06 11:31:23;;;;;;;;;;;;;;;;;;6228188;22;19927;-84
2023/02/06 11:33:51;;;;;;;;;;;;;;;;;;6230123;22;19938;-85
2023/02/06 11:36:18;;;;;;;;;;;;;;;;;;6254288;22;19907;-84
2023/02/06 11:38:46;;;;;;;;;;;;;;;;;;6262541;22;19902;-84
2023/02/06 11:41:13;;;;;;;;;;;;;;;;;;6199159;22;19903;-84
2023/02/06 11:43:41;;;;;;;;;;;;;;;;;;6199159;23;19914;-84
2023/02/06 11:46:13;;;;;;;;;;;;;;;;;;6224776;22;19904;-83
2023/02/06 11:48:46;;;;;;;;;;;;;;;;;;6201027;22;19896;-84
2023/02/06 11:51:13;;;;;;;;;;;;;;;;;;6191434;23;19916;-82
2023/02/06 11:53:41;;;;;;;;;;;;;;;;;;6208178;23;19911;-82
2023/02/06 11:56:07;;;;;;;;;;;;;;;;;;6188512;23;19931;-82
2023/02/06 11:58:36;;;;;;;;;;;;;;;;;;6184775;23;19908;-81
2023/02/06 12:01:03;;;;;;;;;;;;;;;;;;6182248;23;19957;-82
2023/02/06 12:03:31;;;;;;;;;;;;;;;;;;6235881;23;19912;-83
2023/02/06 12:06:02;;;;;;;;;;;;;;;;;;6216392;23;19907;-84
2023/02/06 12:11:17;;;;;;;;;;;;;;;;;;6302089;22;19907;-83
2023/02/06 12:14:02;;;;;;;;;;;;;;;;;;6260903;22;19926;-80
2023/02/06 12:22:05;;;;;;;;;;;;;;;;;;6299560;22;19923;-84
2023/02/06 12:24:42;;;;;;;;;;;;;;;;;;6328183;22;19926;-84
2023/02/06 12:27:34;;;;;;;;;;;;;;;;;;6283127;22;19907;-84
2023/02/06 12:30:05;;;;;;;;;;;;;;;;;;6306451;22;19911;-83
2023/02/06 12:32:34;;;;;;;;;;;;;;;;;;6282009;22;19915;-85
2023/02/06 12:35:02;;;;;;;;;;;;;;;;;;6280940;22;19903;-85
2023/02/06 12:37:38;;;;;;;;;;;;;;;;;;6278341;22;19907;-83
2023/02/06 12:40:07;;;;;;;;;;;;;;;;;;6276057;22;19902;-84
2023/02/06 12:42:35;;;;;;;;;;;;;;;;;;6303882;22;19907;-84
2023/02/06 12:45:04;;;;;;;;;;;;;;;;;;6303730;22;19933;-83
2023/02/06 12:47:39;;;;;;;;;;;;;;;;;;6280825;22;19935;-81
2023/02/06 12:50:05;;;;;;;;;;;;;;;;;;6332491;22;19907;-83
2023/02/06 12:52:30;;;;;;;;;;;;;;;;;;6304792;22;19925;-83
2023/02/06 12:54:56;;;;;;;;;;;;;;;;;;6279630;22;19939;-79
2023/02/06 12:57:21;;;;;;;;;;;;;;;;;;6306777;22;20259;-79
2023/02/06 12:59:47;;;;;;;;;;;;;;;;;;6276465;22;20243;-79
2023/02/06 13:02:12;;;;;;;;;;;;;;;;;;6276302;22;19991;-79
2023/02/06 13:04:37;;;;;;;;;;;;;;;;;;6248750;22;19907;-79
2023/02/06 13:07:03;;;;;;;;;;;;;;;;;;6325862;22;19921;-84
2023/02/06 13:09:31;;;;;;;;;;;;;;;;;;6360173;22;19918;-84
2023/02/06 13:11:59;;;;;;;;;;;;;;;;;;6309067;22;20358;-84
2023/02/06 13:14:27;;;;;;;;;;;;;;;;;;6285085;22;19911;-84
2023/02/06 13:17:00;;;;;;;;;;;;;;;;;;6284133;22;19905;-84
2023/02/06 13:19:33;;;;;;;;;;;;;;;;;;6286863;22;19955;-84
2023/02/06 13:21:59;;;;;;;;;;;;;;;;;;6332047;22;20237;-82
2023/02/06 13:24:24;;;;;;;;;;;;;;;;;;6268758;22;19910;-80
2023/02/06 13:26:55;;;;;;;;;;;;;;;;;;6289947;22;20319;-78
2023/02/06 13:29:20;;;;;;;;;;;;;;;;;;6340070;22;19914;-79
2023/02/06 13:31:46;;;;;;;;;;;;;;;;;;6261128;22;19914;-79
2023/02/06 13:34:11;;;;;;;;;;;;;;;;;;6314284;22;19906;-82
2023/02/06 13:36:37;;;;;;;;;;;;;;;;;;6309548;22;19946;-83
2023/02/06 13:39:02;;;;;;;;;;;;;;;;;;6329861;22;19907;-80
2023/02/06 13:41:41;;;;;;;;;;;;;;;;;;;;;
2023/02/06 13:44:16;;;;;;;;;;;;;;;;;;6341354;22;19906;-83
2023/02/06 13:46:42;;;;;;;;;;;;;;;;;;6367396;22;19917;-83
2023/02/06 13:49:10;;;;;;;;;;;;;;;;;;6340727;22;19932;-83
2023/02/06 13:51:36;;;;;;;;;;;;;;;;;;6340738;22;19954;-84
2023/02/06 13:54:03;;;;;;;;;;;;;;;;;;6342541;22;19946;-85
2023/02/06 13:56:33;;;;;;;;;;;;;;;;;;6343034;22;19906;-83
2023/02/06 13:59:04;;;;;;;;;;;;;;;;;;6307483;22;19903;-83
2023/02/06 14:01:41;;;;;;;;;;;;;;;;;;6361021;22;19907;-85
2023/02/06 14:04:06;;;;;;;;;;;;;;;;;;6333349;22;19917;-85
2023/02/06 14:06:39;;;;;;;;;;;;;;;;;;6274183;22;20488;-81
2023/02/06 14:17:36;;;;;;;;;;;;;;;;;;6299499;22;19904;-84
2023/02/06 14:33:32;;;;;;;;;;;;;;;;;;6301405;22;19914;-81
2023/02/06 14:36:00;;;;;;;;;;;;;;;;;;6254294;22;19935;-83
2023/02/06 14:38:31;;;;;;;;;;;;;;;;;;6300896;22;19902;-83
2023/02/06 14:41:06;;;;;;;;;;;;;;;;;;6259455;22;19911;-84
2023/02/06 14:43:32;;;;;;;;;;;;;;;;;;6280550;22;19918;-83
2023/02/06 14:46:02;;;;;;;;;;;;;;;;;;6280191;22;19931;-83
2023/02/06 14:48:31;;;;;;;;;;;;;;;;;;6280470;22;19895;-84
2023/02/06 14:50:57;;;;;;;;;;;;;;;;;;6280005;22;19930;-84
2023/02/06 14:53:30;;;;;;;;;;;;;;;;;;6305378;22;19895;-84
2023/02/06 14:55:56;;;;;;;;;;;;;;;;;;6305609;22;19918;-84
2023/02/06 14:58:24;;;;;;;;;;;;;;;;;;6305698;22;19904;-83
2023/02/06 15:00:50;;;;;;;;;;;;;;;;;;6253811;22;19903;-84
2023/02/06 15:03:15;;;;;;;;;;;;;;;;;;6302983;22;19915;-85
2023/02/06 15:05:43;;;;;;;;;;;;;;;;;;6304470;22;19911;-84
2023/02/06 15:08:09;;;;;;;;;;;;;;;;;;6278579;22;19919;-84
2023/02/06 15:10:58;;;;;;;;;;;;;;;;;;6250953;22;19908;-86
2023/02/06 15:13:40;;;;;;;;;;;;;;;;;;6306371;22;19919;-85
2023/02/06 15:19:07;;;;;;;;;;;;;;;;;;6256138;22;19903;-79
2023/02/06 15:21:54;;;;;;;;;;;;;;;;;;6269243;22;19906;-84
2023/02/06 15:26:56;;;;;;;;;;;;;;;;;;6292625;22;19916;-86
2023/02/06 15:29:21;;;;;;;;;;;;;;;;;;6268105;22;20294;-81
2023/02/06 15:31:51;;;;;;;;;;;;;;;;;;6248986;22;19922;-84
2023/02/06 15:34:37;;;;;;;;;;;;;;;;;;6254567;22;19923;-85
2023/02/06 15:45:18;;;;;;;;;;;;;;;;;;;;;
2023/02/06 15:50:23;;;;;;;;;;;;;;;;;;6244310;23;19952;-86
2023/02/06 15:55:35;;;;;;;;;;;;;;;;;;6305513;22;19915;-85
2023/02/06 15:58:08;;;;;;;;;;;;;;;;;;6245385;22;20313;-86
2023/02/06 16:00:36;;;;;;;;;;;;;;;;;;6283973;22;19938;-84
2023/02/06 16:03:04;;;;;;;;;;;;;;;;;;6306103;22;19915;-85
2023/02/06 16:05:43;;;;;;;;;;;;;;;;;;6304763;22;19911;-86
2023/02/06 16:08:25;;;;;;;;;;;;;;;;;;6304543;22;19902;-86
2023/02/06 16:11:11;;;;;;;;;;;;;;;;;;6277931;22;19926;-84
2023/02/06 16:19:21;;;;;;;;;;;;;;;;;;6277382;22;19923;-85
2023/02/06 16:25:04;;;;;;;;;;;;;;;;;;;;;
2023/02/06 16:38:27;;;;;;;;;;;;;;;;;;6320753;22;19919;-85
2023/02/06 16:43:41;;;;;;;;;;;;;;;;;;6289545;22;19903;-84
2023/02/06 17:11:37;;;;;;;;;;;;;;;;;;6308413;22;20010;-82
2023/02/06 17:14:04;;;;;;;;;;;;;;;;;;6270193;22;19915;-80
2023/02/06 17:19:04;;;;;;;;;;;;;;;;;;6293509;22;19925;-78
2023/02/06 17:21:31;;;;;;;;;;;;;;;;;;6254801;22;19931;-78
2023/02/06 17:23:57;;;;;;;;;;;;;;;;;;6279373;22;20328;-77
2023/02/06 17:26:22;;;;;;;;;;;;;;;;;;6277928;22;19930;-77
2023/02/06 17:28:48;;;;;;;;;;;;;;;;;;6282625;22;19908;-78
2023/02/06 17:31:13;;;;;;;;;;;;;;;;;;6304271;22;19914;-77
2023/02/06 17:33:39;;;;;;;;;;;;;;;;;;6281592;22;19934;-77
2023/02/06 17:44:15;;;;;;;;;;;;;;;;;;6292749;22;19939;-84
2023/02/06 17:46:48;;;;;;;;;;;;;;;;;;6278256;22;19975;-83
2023/02/06 17:49:16;;;;;;;;;;;;;;;;;;6279933;22;19911;-83
2023/02/06 17:54:27;;;;;;;;;;;;;;;;;;6299698;22;19903;-85
2023/02/06 17:56:52;;;;;;;;;;;;;;;;;;6304617;22;19947;-84
2023/02/06 18:37:42;;;;;;;;;;;;;;;;;;6296489;22;19919;-82
2023/02/06 18:40:15;;;;;;;;;;;;;;;;;;6295465;22;19906;-80
2023/02/06 18:42:50;;;;;;;;;;;;;;;;;;6317950;22;19914;-79
2023/02/06 18:45:15;;;;;;;;;;;;;;;;;;6316181;22;19956;-80
2023/02/06 18:47:41;;;;;;;;;;;;;;;;;;6341304;22;19932;-81
2023/02/06 18:50:06;;;;;;;;;;;;;;;;;;6338814;22;20308;-81
2023/02/06 18:52:32;;;;;;;;;;;;;;;;;;6344024;22;19918;-83
2023/02/06 18:54:57;;;;;;;;;;;;;;;;;;6319904;22;19910;-83
2023/02/06 18:57:23;;;;;;;;;;;;;;;;;;6342801;22;20282;-80
2023/02/06 18:59:48;;;;;;;;;;;;;;;;;;6286460;22;19918;-80
2023/02/06 19:02:14;;;;;;;;;;;;;;;;;;6311661;22;19906;-80
2023/02/06 19:04:39;;;;;;;;;;;;;;;;;;6285986;22;19917;-81
2023/02/06 19:07:05;;;;;;;;;;;;;;;;;;6285950;22;19955;-80
2023/02/06 19:09:30;;;;;;;;;;;;;;;;;;6310843;22;19914;-79
2023/02/06 19:11:55;;;;;;;;;;;;;;;;;;6341746;22;19933;-80
2023/02/06 19:14:24;;;;;;;;;;;;;;;;;;6289891;22;20247;-79
2023/02/06 19:16:49;;;;;;;;;;;;;;;;;;6315734;22;19907;-81
2023/02/06 19:19:15;;;;;;;;;;;;;;;;;;6291371;22;19913;-81
2023/02/06 19:21:40;;;;;;;;;;;;;;;;;;6321821;22;19906;-79
2023/02/06 19:24:06;;;;;;;;;;;;;;;;;;6355084;22;20340;-80
2023/02/06 19:26:32;;;;;;;;;;;;;;;;;;6352624;22;19907;-80
2023/02/06 19:28:58;;;;;;;;;;;;;;;;;;6321856;22;19981;-81
2023/02/06 19:31:23;;;;;;;;;;;;;;;;;;6346076;22;19906;-81
2023/02/06 19:33:48;;;;;;;;;;;;;;;;;;6342155;22;20251;-82
2023/02/06 19:36:14;;;;;;;;;;;;;;;;;;6314314;22;19930;-82
2023/02/06 19:38:40;;;;;;;;;;;;;;;;;;6289105;22;19910;-81
2023/02/06 19:41:05;;;;;;;;;;;;;;;;;;6342532;22;19906;-81
2023/02/06 19:43:31;;;;;;;;;;;;;;;;;;6344158;22;19967;-81
2023/02/06 19:45:56;;;;;;;;;;;;;;;;;;6347757;22;19970;-81
2023/02/06 19:48:21;;;;;;;;;;;;;;;;;;6349328;22;19938;-81
2023/02/06 19:50:48;;;;;;;;;;;;;;;;;;6359112;22;19911;-82
2023/02/06 19:53:13;;;;;;;;;;;;;;;;;;6293839;22;19919;-82
2023/02/06 19:55:39;;;;;;;;;;;;;;;;;;6246090;22;19938;-83
2023/02/06 19:58:04;;;;;;;;;;;;;;;;;;6298747;22;19941;-82
2023/02/06 20:00:30;;;;;;;;;;;;;;;;;;6248353;22;19895;-83
2023/02/06 20:02:55;;;;;;;;;;;;;;;;;;6249132;22;20329;-82
2023/02/06 20:05:25;;;;;;;;;;;;;;;;;;6276310;22;19917;-81
2023/02/06 20:07:50;;;;;;;;;;;;;;;;;;6221509;22;19907;-82
2023/02/06 20:10:32;;;;;;;;;;;;;;;;;;6248651;22;19914;-83
2023/02/06 20:12:59;;;;;;;;;;;;;;;;;;6270472;22;19959;-83
2023/02/06 20:15:25;;;;;;;;;;;;;;;;;;6296693;22;19907;-82
2023/02/06 20:17:51;;;;;;;;;;;;;;;;;;6289370;22;20340;-83
2023/02/06 20:20:16;;;;;;;;;;;;;;;;;;6260474;22;19907;-82
2023/02/06 20:22:44;;;;;;;;;;;;;;;;;;6240501;22;19911;-83
2023/02/06 20:25:10;;;;;;;;;;;;;;;;;;6245014;22;19914;-82
2023/02/06 20:27:36;;;;;;;;;;;;;;;;;;6249666;22;20325;-83
2023/02/06 20:30:01;;;;;;;;;;;;;;;;;;6274523;22;20329;-83
2023/02/06 20:32:27;;;;;;;;;;;;;;;;;;6275242;22;19953;-82
2023/02/06 20:34:56;;;;;;;;;;;;;;;;;;6274923;22;19914;-82
2023/02/06 20:37:25;;;;;;;;;;;;;;;;;;6302065;22;19907;-82
2023/02/06 20:39:51;;;;;;;;;;;;;;;;;;6247659;22;19957;-82
2023/02/06 20:42:18;;;;;;;;;;;;;;;;;;6220464;22;19907;-82
2023/02/06 20:44:43;;;;;;;;;;;;;;;;;;6297309;22;20070;-83
2023/02/06 20:47:09;;;;;;;;;;;;;;;;;;6300012;22;19937;-82
2023/02/06 20:49:34;;;;;;;;;;;;;;;;;;6272154;22;19951;-82
2023/02/06 20:52:02;;;;;;;;;;;;;;;;;;6274261;22;19934;-83
2023/02/06 20:54:29;;;;;;;;;;;;;;;;;;6326914;22;19910;-82
2023/02/06 20:56:54;;;;;;;;;;;;;;;;;;6332571;22;19907;-82
2023/02/06 20:59:20;;;;;;;;;;;;;;;;;;6333973;22;19906;-83
2023/02/06 21:01:45;;;;;;;;;;;;;;;;;;6334165;22;19918;-84
2023/02/06 21:04:11;;;;;;;;;;;;;;;;;;6332049;22;19986;-84
2023/02/06 21:06:36;;;;;;;;;;;;;;;;;;6333847;22;19914;-83
2023/02/06 21:09:02;;;;;;;;;;;;;;;;;;6306415;22;19907;-82
2023/02/06 21:11:28;;;;;;;;;;;;;;;;;;6281265;22;19919;-83
2023/02/06 21:13:54;;;;;;;;;;;;;;;;;;6333992;22;19918;-83
2023/02/06 21:16:22;;;;;;;;;;;;;;;;;;6307508;22;19906;-83
2023/02/06 21:18:50;;;;;;;;;;;;;;;;;;6307551;22;19910;-83
2023/02/06 21:21:16;;;;;;;;;;;;;;;;;;6306905;22;19914;-82
2023/02/06 21:23:45;;;;;;;;;;;;;;;;;;6334191;22;19917;-84
2023/02/06 21:26:16;;;;;;;;;;;;;;;;;;6303303;22;19907;-84
2023/02/06 21:28:46;;;;;;;;;;;;;;;;;;6330328;22;19910;-83
2023/02/06 21:31:16;;;;;;;;;;;;;;;;;;6307073;22;19906;-83
2023/02/06 21:33:47;;;;;;;;;;;;;;;;;;6333135;22;20144;-82
2023/02/06 21:36:20;;;;;;;;;;;;;;;;;;6335552;22;19907;-83
2023/02/06 21:38:48;;;;;;;;;;;;;;;;;;6281827;22;19930;-83
2023/02/06 21:41:25;;;;;;;;;;;;;;;;;;6308856;22;19906;-83
2023/02/06 21:43:50;;;;;;;;;;;;;;;;;;6309602;22;19907;-84
2023/02/06 21:46:16;;;;;;;;;;;;;;;;;;6337078;22;19891;-83
2023/02/06 21:48:42;;;;;;;;;;;;;;;;;;6285857;22;19895;-83
2023/02/06 21:51:08;;;;;;;;;;;;;;;;;;6337118;22;19906;-84
2023/02/06 21:53:34;;;;;;;;;;;;;;;;;;6259228;22;19918;-83
2023/02/06 21:56:03;;;;;;;;;;;;;;;;;;6309708;22;19971;-84
2023/02/06 21:58:32;;;;;;;;;;;;;;;;;;6336941;22;19891;-83
2023/02/06 22:01:02;;;;;;;;;;;;;;;;;;6311540;22;19910;-84
2023/02/06 22:03:28;;;;;;;;;;;;;;;;;;6311639;22;19895;-83
2023/02/06 22:05:56;;;;;;;;;;;;;;;;;;6337913;22;19917;-82
2023/02/06 22:08:22;;;;;;;;;;;;;;;;;;6257559;22;19910;-83
2023/02/06 22:10:48;;;;;;;;;;;;;;;;;;6281468;22;19921;-83
2023/02/06 22:13:13;;;;;;;;;;;;;;;;;;6282698;22;19914;-84
2023/02/06 22:15:39;;;;;;;;;;;;;;;;;;6335702;22;19936;-83
2023/02/06 22:18:05;;;;;;;;;;;;;;;;;;6334636;22;19916;-82
2023/02/06 22:20:30;;;;;;;;;;;;;;;;;;6308783;22;19938;-83
2023/02/06 22:22:56;;;;;;;;;;;;;;;;;;6308402;22;19922;-83
2023/02/06 22:25:22;;;;;;;;;;;;;;;;;;6309402;22;19958;-82
2023/02/06 22:27:47;;;;;;;;;;;;;;;;;;6308629;22;19907;-82
2023/02/06 22:30:13;;;;;;;;;;;;;;;;;;6304601;22;19914;-82
2023/02/06 22:32:39;;;;;;;;;;;;;;;;;;6277278;22;19954;-81
2023/02/06 22:35:12;;;;;;;;;;;;;;;;;;6301731;22;19911;-82
2023/02/06 22:37:38;;;;;;;;;;;;;;;;;;6274597;22;19907;-80
2023/02/06 22:40:04;;;;;;;;;;;;;;;;;;6294070;22;19917;-82
2023/02/06 22:42:29;;;;;;;;;;;;;;;;;;6291337;22;19914;-79
2023/02/06 22:44:55;;;;;;;;;;;;;;;;;;6315097;22;19960;-81
2023/02/06 22:47:20;;;;;;;;;;;;;;;;;;6286644;22;20344;-80
2023/02/06 22:49:46;;;;;;;;;;;;;;;;;;6283614;22;20358;-82
2023/02/06 22:54:56;;;;;;;;;;;;;;;;;;6281491;22;19918;-79
2023/02/06 22:57:21;;;;;;;;;;;;;;;;;;6281808;22;19907;-79
2023/02/06 22:59:46;;;;;;;;;;;;;;;;;;6314075;22;19903;-79
2023/02/06 23:02:12;;;;;;;;;;;;;;;;;;6311760;22;19964;-78
2023/02/06 23:04:39;;;;;;;;;;;;;;;;;;6281195;22;19990;-79
2023/02/06 23:07:04;;;;;;;;;;;;;;;;;;6308831;22;19911;-79
2023/02/06 23:09:30;;;;;;;;;;;;;;;;;;6282029;22;19914;-79
2023/02/06 23:11:57;;;;;;;;;;;;;;;;;;6308439;22;19915;-78
2023/02/06 23:14:22;;;;;;;;;;;;;;;;;;6255131;22;19903;-79
2023/02/06 23:16:47;;;;;;;;;;;;;;;;;;6255142;22;19976;-80
2023/02/06 23:19:13;;;;;;;;;;;;;;;;;;6307823;22;19958;-79
2023/02/06 23:21:38;;;;;;;;;;;;;;;;;;6229941;22;19907;-80
2023/02/06 23:24:04;;;;;;;;;;;;;;;;;;6280735;22;19910;-77
2023/02/06 23:26:29;;;;;;;;;;;;;;;;;;6307806;22;19952;-78
2023/02/06 23:28:54;;;;;;;;;;;;;;;;;;6281194;22;19907;-77
2023/02/06 23:31:20;;;;;;;;;;;;;;;;;;6281718;22;19935;-78
2023/02/06 23:33:45;;;;;;;;;;;;;;;;;;6255214;22;19911;-78
2023/02/06 23:36:11;;;;;;;;;;;;;;;;;;6308077;22;19914;-77
2023/02/06 23:38:36;;;;;;;;;;;;;;;;;;6308653;22;19915;-79
2023/02/06 23:41:01;;;;;;;;;;;;;;;;;;6256085;22;19972;-79
2023/02/06 23:43:27;;;;;;;;;;;;;;;;;;6308528;22;19913;-79
2023/02/06 23:45:52;;;;;;;;;;;;;;;;;;6307648;22;20397;-79
2023/02/06 23:48:18;;;;;;;;;;;;;;;;;;6280670;22;20153;-78
2023/02/06 23:50:43;;;;;;;;;;;;;;;;;;6308363;22;20340;-78
2023/02/06 23:53:08;;;;;;;;;;;;;;;;;;6307730;22;19918;-79
2023/02/06 23:55:34;;;;;;;;;;;;;;;;;;6307928;22;20355;-78
2023/02/06 23:57:59;;;;;;;;;;;;;;;;;;6308421;22;19907;-79
